Weather observations for the past three days for
Fort Myers, Southwest Florida International Airport
Imperial (Metric)
Date Time (edt) Wind (mph) Vis. (mi.) Weather Sky Cond. Temperature (ºF) Relative Humidity Wind Chill (°F) Heat Index (°F) Pressure Precipitation (in)
Air Dwpt 6 hour altimeter (in) sea level (mb) 1 hr 3 hr 6 hr
Max. Min.
31 08:53 NE 5 10.00 Fair CLR 79 77 94% 83 30.03 1016.7
31 07:53 Calm 10.00 Fair CLR 77 75 77 75 94% 78 30.01 1016.0
31 06:53 Calm 10.00 Fair CLR 75.9 73.9 94% 75 30 1015.4
31 05:53 NE 5 10.00 Fair CLR 75.9 73.9 94% 75 29.99 1015.2
31 04:53 NE 3 10.00 Fair CLR 75 73.9 96% 73 29.99 1015.2
31 03:53 NE 5 10.00 Fair CLR 75.9 73.9 94% 75 29.99 1015.2
31 02:53 N 3 10.00 Fair CLR 75.9 75 97% 75 30 1015.6
31 01:53 NE 5 10.00 Fair CLR 75.9 75 79 75.9 97% 75 30.01 1016.0
31 00:53 E 3 10.00 Fair CLR 77 75.9 96% 78 30.03 1016.5
30 23:53 NE 5 10.00 Fair CLR 77 75.9 96% 78 30.04 1016.9
30 22:53 E 5 10.00 Fair CLR 78.1 75.9 93% 81 30.02 1016.4
30 21:53 E 6 10.00 Fair CLR 78.1 75.9 93% 81 30.03 1016.6
30 20:53 Calm 10.00 Fair CLR 78.1 75.9 93% 81 30.04 1016.8
30 19:53 Calm 10.00 Fair CLR 79 75.9 87.1 73.9 90% 83 30.02 1016.1 0.22
30 18:53 Calm 10.00 Fair CLR 79 75 88% 83 30 1015.5
30 17:53 E 3 10.00 Light Rain BKN050 BKN060 OVC070 77 75 94% 78 30 1015.5 0.02
30 16:53 Calm 10.00 Light Rain FEW065 OVC085 75.9 72 88% 76 30.01 1015.8 0.02 0.2
30 15:53 E 7 10.00 Light Rain SCT075 BKN095 BKN110 75 73 94% 73 30.01 1015.9 0.11
30 14:53 E 13 G 21 2.00 Thunderstorm Heavy Rain FEW015 BKN030 OVC060 77 72 85% 78 30.07 1017.9 0.07
30 13:53 NW 6 10.00 Fair CLR 86 75 88 75 70% 95 30.03 1016.5 0.53
30 12:53 N 6 4.00 Light Rain Fog/Mist SCT026 BKN075 OVC090 77 73.9 90% 78 30.05 1017.4 0.53
30 11:53 Vrbl 7 10.00 A Few Clouds FEW023 FEW070 88 78.1 73% 102 30.05 1017.4
30 10:53 E 5 10.00 Fair CLR 84.9 78.1 80% 97 30.06 1017.7
30 09:53 NE 6 10.00 Fair CLR 81 77 88% 88 30.07 1017.8
30 08:53 NE 7 10.00 Fair CLR 75.9 73.9 94% 75 30.04 1017.1
30 07:53 NE 3 10.00 Fair CLR 75 73 75 73.9 94% 73 30.04 1017.0
30 06:53 NE 7 10.00 Fair CLR 73.9 73 97% 30.02 1016.2
30 05:53 NE 6 10.00 Fair CLR 73.9 72 94% 30 1015.5
30 04:53 Calm 10.00 Fair CLR 73.9 72 94% 29.99 1015.4
30 03:53 NE 5 10.00 Fair CLR 73.9 71.1 91% 30.02 1016.2
30 02:53 NE 5 10.00 Fair CLR 73.9 71.1 91% 30.03 1016.7
30 01:53 NE 7 10.00 Fair CLR 73.9 72 75.9 73.9 94% 30.04 1017.1
30 00:53 N 5 10.00 Fair CLR 75 72 90% 74 30.05 1017.4
29 23:53 NE 7 10.00 Fair CLR 75 73 94% 73 30.06 1017.6
29 22:53 E 5 10.00 Fair CLR 75 73.9 96% 73 30.04 1017.0
29 21:53 E 6 10.00 Fair CLR 75 73.9 96% 73 30.04 1016.8
29 20:53 E 5 10.00 Fair CLR 75.9 73.9 94% 75 30.05 1017.3
29 19:53 NE 3 10.00 Fair CLR 75.9 73.9 93.9 73 94% 75 30.04 1017.0 1.15
29 18:53 NE 6 10.00 Fair CLR 75 73 94% 73 30.04 1016.8
29 17:53 NE 5 10.00 Fair CLR 75.9 73 91% 76 30 1015.7 0.01
29 15:53 NW 6 5.00 Thunderstorm Heavy Rain Fog FEW014 OVC026 73 71.1 94% 30.06 1017.6 0.89
29 14:53 Calm 1.25 Thunderstorm Heavy Rain BKN033 OVC044 75.9 71.1 85% 76 30.05 1017.2 0.21
29 13:53 Calm 10.00 A Few Clouds FEW080 93.9 73.9 93.9 78.1 52% 104 30.03 1016.5
29 12:53 N 3 10.00 Mostly Cloudy FEW038 SCT049 BKN085 93 75 56% 104 30.04 1017.0
29 11:53 E 5 10.00 Fair CLR 91 75.9 61% 103 30.06 1017.5
29 10:53 E 7 10.00 A Few Clouds FEW022 88 78.1 73% 102 30.08 1018.1
29 09:53 E 5 10.00 Fair CLR 84.9 78.1 80% 97 30.07 1017.9
29 08:53 E 8 10.00 Fair CLR 82 77 85% 90 30.05 1017.3
29 07:53 Calm 10.00 Fair CLR 77 75 77 75 94% 78 30.06 1017.7
29 06:53 NE 3 10.00 Fair CLR 75.9 73.9 94% 75 30.04 1016.8
29 05:53 E 6 10.00 Fair CLR 75.9 73 91% 76 30.02 1016.3
29 04:53 NE 5 10.00 Fair CLR 75.9 73 91% 76 30.02 1016.3
29 03:53 E 6 10.00 Fair CLR 77 73 88% 78 30.02 1016.2
29 02:53 NE 6 10.00 Fair CLR 77 73.9 90% 78 30.02 1016.4
29 01:53 NE 6 10.00 Fair CLR 77 73.9 78.1 77 90% 78 30.03 1016.7 0.28
29 00:53 NE 5 10.00 Fair CLR 77 73.9 90% 78 30.05 1017.2
28 23:53 NE 6 10.00 Fair CLR 77 75 94% 78 30.05 1017.2
28 22:53 Calm 10.00 Fair CLR 77 73.9 90% 78 30.04 1016.8 0.28
28 21:53 Calm 10.00 Light Rain FEW090 SCT120 77 75 94% 78 30.04 1017.0
28 19:53 N 6 7.00 Thunderstorm Rain SCT042 BKN050 OVC090 78.1 75.9 95 75 93% 81 30.03 1016.6 1.43 1.45
28 18:53 SE 13 9.00 Thunderstorm Light Rain FEW035 OVC044 82 73 74% 87 30.01 1015.9 0.02
28 17:53 N 3 10.00 Thunderstorm in Vicinity FEW034 90 73.9 59% 99 29.98 1014.8
28 16:53 W 6 10.00 Thunderstorm SCT065 BKN080 93.9 73 51% 103 29.98 1015.0
28 15:53 W 10 10.00 Fair CLR 93 73.9 54% 103 29.99 1015.1
28 14:53 Vrbl 7 10.00 Partly Cloudy FEW050 SCT065 95 73.9 51% 106 30 1015.7
28 13:53 W 6 10.00 Mostly Cloudy BKN050 BKN100 93 73 93.9 77 52% 102 30.04 1016.9
28 12:53 S 8 10.00 A Few Clouds FEW050 FEW090 91.9 73 54% 101 30.07 1017.9
28 11:53 S 5 10.00 A Few Clouds FEW039 91 73.9 57% 101 30.08 1018.4
28 10:53 SE 9 10.00 Fair CLR 88 75 66% 98 30.07 1018.0
28 09:53 S 7 10.00 Fair CLR 86 75 70% 95 30.07 1017.9
Date Time (edt) Wind (mph) Vis. (mi.) Weather Sky Cond. Air Dwpt Max. Min. Relative Humidity Wind Chill (°F) Heat Index (°F) altimeter (in) sea level (mb) 1 hr 3 hr 6 hr
6 hour
Temperature (ºF) Pressure Precipitation (in)